Prospect, Connecticut
Current Conditions -  °F | °C
As of 11:53 AM on Sunday 21 Dec 2014 (Local Time) from KMMK Reporting Station
Light Snow Light Snow  
Wind Chill: 28°   Ceiling: 1100
Heat Index: 34°   Visibility: 3mi
Dew Point: 30°   Wind: 7mph
Humidity: 85%   Direction: 10°N
Pressure: 30.29"   Gusts: NA
Location:  41.5°N, 72.98°W
Report Text: KMMK 211653Z AUTO 01006KT 3SM -SN BR BKN011 OVC017 01/M01 A3029 RMK AO2 SNB39 SLP258 P0000 T00111011 TSNO
Loading
Personal Weather Stations






























Interactive Weather Map New forecast layout! Learn more

10-Day Weather Forecast

Advertisements
Track Severe Weather on mobile